Time;durP1;ratioP1;P1;durP2;ratioP2;P2;SDS_P1;SDS_P2;PMS_P1;PMS_P2;Temp;Humidity;BMP_temperature;BMP_pressure;BME280_temperature;BME280_humidity;BME280_pressure;Samples;Min_cycle;Max_cycle;Signal;HPM_P1;HPM_P2
2023/12/03 00:00:41;;;;;;;18.13;12.27;;;-2.60;15.30;;;;;;5014957;28;20194;-73
2023/12/03 00:03:08;;;;;;;17.48;10.98;;;-2.50;14.60;;;;;;5015207;28;20181;-72
2023/12/03 00:05:36;;;;;;;17.02;10.43;;;-2.60;13.70;;;;;;5015042;28;20670;-72
2023/12/03 00:08:02;;;;;;;18.73;10.70;;;-2.60;13.50;;;;;;5013995;28;20185;-71
2023/12/03 00:10:28;;;;;;;15.50;8.85;;;-2.60;12.80;;;;;;5015056;28;20209;-71
2023/12/03 00:12:54;;;;;;;17.53;9.97;;;-2.60;13.20;;;;;;5015090;28;20182;-72
2023/12/03 00:15:19;;;;;;;13.37;9.20;;;-2.60;14.20;;;;;;5013299;28;20431;-73
2023/12/03 00:17:45;;;;;;;17.27;9.07;;;-2.60;14.40;;;;;;5014754;28;20202;-72
2023/12/03 00:20:10;;;;;;;14.90;10.40;;;-2.60;13.90;;;;;;5015186;28;20756;-72
2023/12/03 00:22:37;;;;;;;16.50;10.47;;;-2.60;13.20;;;;;;5014235;28;20261;-72
2023/12/03 00:25:02;;;;;;;16.60;11.00;;;-2.50;12.60;;;;;;5014899;28;20209;-72
2023/12/03 00:27:28;;;;;;;15.77;9.00;;;-2.60;12.00;;;;;;5014561;28;20212;-72
2023/12/03 00:29:53;;;;;;;15.53;9.93;;;-2.60;12.20;;;;;;5015044;28;20716;-72
2023/12/03 00:32:19;;;;;;;13.03;9.67;;;-2.60;12.30;;;;;;5014940;28;20649;-72
2023/12/03 00:34:45;;;;;;;12.90;9.77;;;-2.60;12.50;;;;;;5014853;28;20565;-72
2023/12/03 00:37:11;;;;;;;11.57;7.43;;;-2.50;11.10;;;;;;5014458;28;20206;-72
2023/12/03 00:39:37;;;;;;;14.68;8.27;;;-2.50;10.20;;;;;;5014615;28;20235;-72
2023/12/03 00:42:03;;;;;;;10.43;8.87;;;-2.50;10.10;;;;;;5014522;28;20202;-72
2023/12/03 00:44:28;;;;;;;13.50;9.20;;;-2.60;9.80;;;;;;5014321;28;20707;-71
2023/12/03 00:46:54;;;;;;;12.13;8.33;;;-2.60;9.60;;;;;;5014377;28;20684;-72
2023/12/03 00:49:19;;;;;;;10.93;8.33;;;-2.70;9.50;;;;;;5014433;28;20337;-72
2023/12/03 00:51:45;;;;;;;16.60;10.17;;;-2.70;10.00;;;;;;5014417;28;20221;-72
2023/12/03 00:54:10;;;;;;;15.43;10.80;;;-2.70;9.40;;;;;;5014389;28;20195;-71
2023/12/03 00:56:36;;;;;;;15.87;10.97;;;-2.60;9.40;;;;;;5014190;28;20239;-71
2023/12/03 00:59:01;;;;;;;14.33;9.83;;;-2.60;9.60;;;;;;5014062;28;20224;-71
2023/12/03 01:01:27;;;;;;;12.93;8.47;;;-2.70;9.70;;;;;;5012730;28;20181;-71
2023/12/03 01:03:52;;;;;;;12.13;8.97;;;-2.70;8.50;;;;;;5014004;28;20668;-71
2023/12/03 01:06:18;;;;;;;13.60;10.07;;;-2.60;8.00;;;;;;5012389;28;20181;-71
2023/12/03 01:08:43;;;;;;;16.93;10.57;;;-2.70;7.80;;;;;;5013941;28;20689;-71
2023/12/03 01:11:10;;;;;;;14.47;9.80;;;-2.60;8.60;;;;;;5012386;28;20198;-71
2023/12/03 01:13:36;;;;;;;11.80;8.75;;;-2.50;9.30;;;;;;5012353;28;20273;-71
2023/12/03 01:16:02;;;;;;;14.10;8.00;;;-2.50;10.40;;;;;;5013453;28;20593;-71
2023/12/03 01:18:27;;;;;;;12.40;8.70;;;-2.40;9.20;;;;;;5012273;28;20363;-71
2023/12/03 01:20:53;;;;;;;11.33;6.80;;;-2.50;7.30;;;;;;5012293;28;20212;-71
2023/12/03 01:23:18;;;;;;;13.17;8.93;;;-2.50;6.80;;;;;;5013788;28;20685;-72
2023/12/03 01:25:44;;;;;;;11.47;7.57;;;-2.50;7.20;;;;;;5013504;28;20213;-71
2023/12/03 01:28:09;;;;;;;8.67;6.30;;;-2.50;7.30;;;;;;5013684;28;20571;-71
2023/12/03 01:30:35;;;;;;;14.17;8.20;;;-2.50;6.80;;;;;;5013755;28;20199;-71
2023/12/03 01:33:00;;;;;;;10.50;6.77;;;-2.50;6.80;;;;;;5013116;28;20183;-72
2023/12/03 01:35:26;;;;;;;10.00;7.47;;;-2.40;6.90;;;;;;5012990;28;20215;-71
2023/12/03 01:37:51;;;;;;;13.03;7.90;;;-2.40;6.90;;;;;;5013435;28;20629;-71
2023/12/03 01:40:17;;;;;;;13.93;8.63;;;-2.40;7.40;;;;;;5013467;28;20223;-72
2023/12/03 01:42:42;;;;;;;12.57;8.50;;;-2.40;8.20;;;;;;5013177;28;20183;-72
2023/12/03 01:45:08;;;;;;;11.30;8.03;;;-2.40;6.90;;;;;;5012961;28;20192;-72
2023/12/03 01:47:35;;;;;;;11.30;7.77;;;-2.40;6.90;;;;;;5013177;28;20225;-71
2023/12/03 01:50:06;;;;;;;12.65;8.13;;;-2.30;6.10;;;;;;5012743;28;20213;-71
2023/12/03 01:52:33;;;;;;;13.75;9.18;;;-2.40;6.10;;;;;;5012780;28;20181;-71
2023/12/03 01:55:00;;;;;;;10.93;7.65;;;-2.40;6.80;;;;;;5012900;28;20716;-72
2023/12/03 01:57:26;;;;;;;13.07;8.55;;;-2.50;6.80;;;;;;5011128;28;20212;-71
2023/12/03 01:59:52;;;;;;;11.07;8.65;;;-2.50;6.90;;;;;;5012784;28;20223;-72
2023/12/03 02:02:17;;;;;;;10.43;8.17;;;-2.50;8.30;;;;;;5011732;28;20206;-72
2023/12/03 02:04:43;;;;;;;11.60;8.70;;;-2.50;9.30;;;;;;5012754;28;20256;-72
2023/12/03 02:07:08;;;;;;;13.23;8.60;;;-2.50;9.90;;;;;;5012655;28;20714;-71
2023/12/03 02:09:34;;;;;;;13.90;9.67;;;-2.60;9.20;;;;;;5012679;28;20268;-72
2023/12/03 02:12:00;;;;;;;16.13;7.82;;;-2.60;9.60;;;;;;5012746;28;20189;-72
2023/12/03 02:14:25;;;;;;;14.10;9.10;;;-2.60;9.80;;;;;;5012872;28;20262;-73
2023/12/03 02:16:51;;;;;;;13.00;8.37;;;-2.60;10.20;;;;;;5012303;28;20256;-73
2023/12/03 02:19:17;;;;;;;15.50;8.60;;;-2.60;8.70;;;;;;5012287;28;20322;-72
2023/12/03 02:21:42;;;;;;;12.80;8.67;;;-2.60;9.30;;;;;;5012867;28;20201;-72
2023/12/03 02:24:08;;;;;;;12.33;8.20;;;-2.60;9.50;;;;;;5012427;28;20172;-73
2023/12/03 02:26:34;;;;;;;13.20;8.40;;;-2.70;8.20;;;;;;5012119;28;20177;-72
2023/12/03 02:29:00;;;;;;;13.83;8.03;;;-2.60;9.30;;;;;;5012298;28;20181;-73
2023/12/03 02:31:27;;;;;;;13.07;7.83;;;-2.50;9.30;;;;;;5012282;28;20661;-72
2023/12/03 02:34:11;;;;;;;15.05;9.40;;;-2.50;8.60;;;;;;5012155;28;20175;-72
2023/12/03 02:36:37;;;;;;;15.10;10.07;;;-2.50;8.30;;;;;;5012046;28;20197;-72
2023/12/03 02:39:02;;;;;;;13.32;10.05;;;-2.40;8.30;;;;;;5012510;28;20513;-73
2023/12/03 02:41:28;;;;;;;13.80;10.00;;;-2.30;7.80;;;;;;5012296;28;20298;-73
2023/12/03 02:43:54;;;;;;;11.47;8.10;;;-2.40;7.70;;;;;;5012290;28;20179;-72
2023/12/03 02:46:19;;;;;;;11.20;7.63;;;-2.40;6.90;;;;;;5010716;28;20180;-72
2023/12/03 02:48:45;;;;;;;14.23;8.67;;;-2.40;5.00;;;;;;5010889;28;20277;-72
2023/12/03 02:51:11;;;;;;;13.57;9.80;;;-2.50;6.00;;;;;;5011896;28;20214;-72
2023/12/03 02:53:38;;;;;;;11.77;8.90;;;-2.40;6.10;;;;;;5012029;28;20535;-73
2023/12/03 02:56:04;;;;;;;11.57;7.80;;;-2.40;6.90;;;;;;5011780;28;20263;-73
2023/12/03 02:58:30;;;;;;;11.55;8.32;;;-2.30;7.80;;;;;;5011872;28;20303;-73
2023/12/03 03:00:55;;;;;;;13.83;7.90;;;-2.30;7.00;;;;;;5011922;28;20721;-72
2023/12/03 03:03:21;;;;;;;12.33;9.07;;;-2.30;7.00;;;;;;5010653;28;20665;-73
2023/12/03 03:05:46;;;;;;;9.70;7.57;;;-2.40;7.10;;;;;;5011820;28;20547;-73
2023/12/03 03:08:12;;;;;;;13.87;8.67;;;-2.40;4.40;;;;;;5011808;28;20595;-73
2023/12/03 03:10:37;;;;;;;9.60;7.63;;;-2.40;3.50;;;;;;5012054;28;20204;-73
2023/12/03 03:13:03;;;;;;;11.27;8.13;;;-2.40;4.10;;;;;;5012177;28;20194;-73
2023/12/03 03:15:28;;;;;;;16.67;10.40;;;-2.50;5.30;;;;;;5011706;28;20673;-73
2023/12/03 03:17:54;;;;;;;13.80;8.53;;;-2.60;5.80;;;;;;5011905;28;20271;-73
2023/12/03 03:20:22;;;;;;;12.60;8.33;;;-2.60;6.30;;;;;;5011780;28;20237;-72
2023/12/03 03:22:51;;;;;;;12.77;10.05;;;-2.50;5.80;;;;;;5011854;28;20179;-73
2023/12/03 03:25:17;;;;;;;11.77;8.32;;;-2.60;6.50;;;;;;5011557;28;20207;-72
2023/12/03 03:27:43;;;;;;;14.83;8.47;;;-2.70;6.40;;;;;;5011786;28;20214;-72
2023/12/03 03:30:09;;;;;;;13.00;7.50;;;-2.80;6.60;;;;;;5011576;28;20437;-72
2023/12/03 03:32:35;;;;;;;10.02;7.53;;;-2.80;6.70;;;;;;5011643;28;20542;-72
2023/12/03 03:35:00;;;;;;;13.90;9.20;;;-2.90;6.50;;;;;;5011710;28;20182;-72
2023/12/03 03:37:26;;;;;;;9.83;7.23;;;-3.10;6.60;;;;;;5011328;28;20200;-72
2023/12/03 03:39:52;;;;;;;10.60;7.67;;;-3.20;7.10;;;;;;5010635;28;20570;-70
2023/12/03 03:42:18;;;;;;;11.60;8.73;;;-3.40;7.30;;;;;;5011607;28;20419;-70
2023/12/03 03:44:43;;;;;;;13.07;8.43;;;-3.50;8.20;;;;;;5011533;28;20178;-71
2023/12/03 03:47:12;;;;;;;10.70;9.13;;;-3.60;9.00;;;;;;5011480;28;20187;-71
2023/12/03 03:49:37;;;;;;;12.43;8.65;;;-3.70;9.20;;;;;;5011654;28;20252;-71
2023/12/03 03:52:03;;;;;;;17.13;10.03;;;-3.70;8.50;;;;;;5011504;28;20779;-71
2023/12/03 03:54:29;;;;;;;14.55;9.68;;;-3.90;8.90;;;;;;5011459;28;20183;-71
2023/12/03 03:56:54;;;;;;;13.33;7.73;;;-4.00;10.30;;;;;;5012110;28;20204;-71
2023/12/03 03:59:20;;;;;;;12.23;8.73;;;-4.10;11.00;;;;;;5014918;28;20204;-71
2023/12/03 04:01:46;;;;;;;11.17;8.30;;;-4.10;11.50;;;;;;5014941;28;20180;-71
2023/12/03 04:04:12;;;;;;;11.60;7.90;;;-4.10;13.40;;;;;;5013894;28;20275;-71
2023/12/03 04:06:44;;;;;;;13.40;8.40;;;-4.20;14.30;;;;;;5014650;28;20180;-71
2023/12/03 04:09:11;;;;;;;15.23;9.55;;;-4.30;15.60;;;;;;5013458;28;20569;-71
2023/12/03 04:11:44;;;;;;;14.20;9.10;;;-4.40;14.10;;;;;;5014766;28;20180;-71
2023/12/03 04:14:13;;;;;;;16.95;10.13;;;-4.50;15.20;;;;;;5014762;28;20655;-71
2023/12/03 04:16:39;;;;;;;15.80;8.98;;;-4.50;16.00;;;;;;5013074;28;20180;-71
2023/12/03 04:19:06;;;;;;;13.80;8.70;;;-4.60;16.90;;;;;;5014429;28;20701;-71
2023/12/03 04:21:32;;;;;;;15.57;10.80;;;-4.70;17.50;;;;;;5014627;28;20254;-71
2023/12/03 04:23:58;;;;;;;17.87;10.40;;;-4.70;21.70;;;;;;5014715;28;20218;-71
2023/12/03 04:26:25;;;;;;;12.68;8.82;;;-4.80;22.20;;;;;;5014606;28;20979;-71
2023/12/03 04:28:52;;;;;;;17.17;9.07;;;-4.80;22.40;;;;;;5014335;28;20221;-71
2023/12/03 04:31:21;;;;;;;15.05;8.75;;;-4.90;23.60;;;;;;5014411;28;20172;-71
2023/12/03 04:33:47;;;;;;;14.38;8.32;;;-5.00;21.80;;;;;;5014409;28;20178;-71
2023/12/03 04:36:14;;;;;;;15.40;9.90;;;-5.00;21.80;;;;;;5012906;28;20172;-71
2023/12/03 04:38:39;;;;;;;17.25;10.48;;;-5.10;20.20;;;;;;5014199;28;20724;-71
2023/12/03 04:41:05;;;;;;;15.00;10.70;;;-5.20;25.60;;;;;;5014284;28;20294;-71
2023/12/03 04:43:30;;;;;;;18.00;12.33;;;-5.20;28.50;;;;;;5014272;28;20526;-71
2023/12/03 04:45:56;;;;;;;15.13;10.50;;;-5.40;29.90;;;;;;5013857;28;20442;-71
2023/12/03 04:48:22;;;;;;;15.60;10.10;;;-5.40;32.80;;;;;;5014056;28;20267;-71
2023/12/03 04:50:48;;;;;;;16.17;11.40;;;-5.50;37.20;;;;;;5014344;28;20212;-71
2023/12/03 04:53:13;;;;;;;20.17;10.73;;;-5.50;39.50;;;;;;5013986;28;20237;-71
2023/12/03 04:55:39;;;;;;;12.33;8.40;;;-5.60;39.30;;;;;;5013806;28;20556;-71
2023/12/03 04:58:05;;;;;;;13.73;10.23;;;-5.70;40.60;;;;;;5012709;28;20577;-71
2023/12/03 05:00:30;;;;;;;13.60;10.00;;;-5.70;46.10;;;;;;5013837;28;20199;-71
2023/12/03 05:02:56;;;;;;;17.30;11.20;;;-5.70;44.20;;;;;;5014375;28;20171;-71
2023/12/03 05:05:21;;;;;;;13.93;8.47;;;-5.70;45.20;;;;;;5016307;28;20172;-71
2023/12/03 05:07:47;;;;;;;14.83;10.37;;;-5.80;45.50;;;;;;5016290;28;20233;-71
2023/12/03 05:10:13;;;;;;;14.67;10.43;;;-5.80;44.90;;;;;;5015157;28;20577;-71
2023/12/03 05:12:38;;;;;;;16.93;11.50;;;-5.80;44.40;;;;;;5013772;28;20766;-70
2023/12/03 05:15:04;;;;;;;15.60;10.33;;;-5.80;44.80;;;;;;5013532;28;20694;-70
2023/12/03 05:17:30;;;;;;;11.63;7.33;;;-5.80;45.90;;;;;;5013449;28;20215;-70
2023/12/03 05:19:55;;;;;;;17.37;9.80;;;-5.90;45.70;;;;;;5013544;28;20194;-70
2023/12/03 05:22:21;;;;;;;18.10;10.87;;;-5.90;45.80;;;;;;5013454;28;20806;-70
2023/12/03 05:24:48;;;;;;;28.10;9.97;;;-5.90;46.00;;;;;;5013485;28;20175;-71
2023/12/03 05:27:14;;;;;;;17.60;9.25;;;-5.90;47.90;;;;;;5013342;28;20172;-71
2023/12/03 05:29:43;;;;;;;18.30;9.97;;;-5.90;51.70;;;;;;5013257;28;20569;-71
2023/12/03 05:32:09;;;;;;;14.13;9.07;;;-6.00;51.40;;;;;;5013263;28;20417;-71
2023/12/03 05:34:35;;;;;;;13.60;9.27;;;-6.10;51.20;;;;;;5012336;28;20655;-71
2023/12/03 05:37:00;;;;;;;18.87;9.73;;;-6.10;49.90;;;;;;5012955;28;20199;-71
2023/12/03 05:39:26;;;;;;;21.33;12.13;;;-6.20;49.00;;;;;;5013180;28;20196;-71
2023/12/03 05:41:51;;;;;;;11.37;8.90;;;-6.20;48.10;;;;;;5013168;28;20176;-71
2023/12/03 05:44:17;;;;;;;15.93;11.50;;;;;;;;;;5011336;28;20704;-71
2023/12/03 05:46:43;;;;;;;21.70;11.45;;;-6.30;40.30;;;;;;5012622;28;20180;-71
2023/12/03 05:49:09;;;;;;;12.83;8.43;;;-6.40;39.40;;;;;;5012758;28;20204;-71
2023/12/03 05:51:35;;;;;;;18.48;10.82;;;-6.50;37.00;;;;;;5012926;28;20179;-71
2023/12/03 05:54:00;;;;;;;16.60;12.03;;;-6.50;30.90;;;;;;5012865;28;20181;-73
2023/12/03 05:56:26;;;;;;;13.87;10.40;;;-6.60;30.00;;;;;;5012496;28;20186;-69
2023/12/03 05:58:51;;;;;;;19.93;10.97;;;-6.60;30.90;;;;;;5012656;28;20203;-70
2023/12/03 06:01:24;;;;;;;18.77;10.73;;;-6.60;30.80;;;;;;5012924;28;20234;-70
2023/12/03 06:03:50;;;;;;;16.65;10.18;;;-6.60;30.90;;;;;;5013057;28;20521;-73
2023/12/03 06:06:16;;;;;;;15.63;10.45;;;-6.70;30.60;;;;;;5012491;28;20175;-70
2023/12/03 06:08:42;;;;;;;19.20;11.43;;;-6.70;30.70;;;;;;5012541;28;20179;-70
2023/12/03 06:11:07;;;;;;;12.70;9.47;;;-6.70;30.80;;;;;;5012586;28;20565;-70
2023/12/03 06:13:33;;;;;;;14.20;8.70;;;-6.80;30.90;;;;;;5011203;28;20238;-70
2023/12/03 06:15:58;;;;;;;11.60;8.33;;;-6.80;31.00;;;;;;5012580;28;20303;-70
2023/12/03 06:18:24;;;;;;;15.57;9.50;;;-6.70;35.00;;;;;;5012509;28;20237;-70
2023/12/03 06:20:49;;;;;;;14.93;10.90;;;-6.80;35.10;;;;;;5011938;28;20236;-70
2023/12/03 06:23:15;;;;;;;14.20;9.93;;;-6.80;34.50;;;;;;5012429;28;20183;-70
2023/12/03 06:25:40;;;;;;;17.03;9.97;;;-6.90;33.30;;;;;;5010968;28;20179;-70
2023/12/03 06:28:06;;;;;;;14.53;9.53;;;-6.90;35.00;;;;;;5011060;28;20191;-69
2023/12/03 06:30:32;;;;;;;15.57;8.80;;;-7.00;38.20;;;;;;5012445;28;20197;-69
2023/12/03 06:32:57;;;;;;;16.97;9.40;;;-7.00;38.20;;;;;;5011029;28;20184;-70
2023/12/03 06:35:23;;;;;;;17.77;9.47;;;-7.00;39.50;;;;;;5013223;28;20558;-70
2023/12/03 06:37:48;;;;;;;14.10;8.83;;;-7.10;39.70;;;;;;5015044;28;20211;-70
2023/12/03 06:40:14;;;;;;;17.47;11.00;;;-7.10;40.40;;;;;;5012566;28;20249;-69
2023/12/03 06:42:40;;;;;;;14.32;10.32;;;-7.10;40.30;;;;;;5012471;28;20184;-70
2023/12/03 06:45:06;;;;;;;14.43;10.43;;;-7.00;40.80;;;;;;5012194;28;20669;-69
2023/12/03 06:47:32;;;;;;;12.18;8.60;;;-7.00;40.80;;;;;;5011682;28;20191;-70
2023/12/03 06:49:58;;;;;;;13.33;9.17;;;;;;;;;;5011960;28;20219;-70
2023/12/03 06:52:23;;;;;;;20.58;11.73;;;-7.10;49.10;;;;;;5012048;28;20605;-70
2023/12/03 06:54:49;;;;;;;20.80;11.87;;;-7.10;49.10;;;;;;5012403;28;20182;-70
2023/12/03 06:57:15;;;;;;;20.40;12.77;;;;;;;;;;5010589;28;20690;-70
2023/12/03 06:59:41;;;;;;;20.83;13.03;;;;;;;;;;5012077;28;20201;-70
2023/12/03 07:02:06;;;;;;;14.40;10.40;;;;;;;;;;5012178;28;20436;-70
2023/12/03 07:04:32;;;;;;;18.10;11.60;;;;;;;;;;5011744;28;20908;-70
2023/12/03 07:07:00;;;;;;;17.90;11.20;;;;;;;;;;5011787;28;20912;-70
2023/12/03 07:09:25;;;;;;;17.95;12.00;;;-7.20;48.90;;;;;;5011889;28;20430;-70
2023/12/03 07:11:51;;;;;;;16.27;10.60;;;;;;;;;;5011908;28;20513;-70
2023/12/03 07:14:17;;;;;;;22.10;10.70;;;;;;;;;;5011816;28;20182;-70
2023/12/03 07:16:43;;;;;;;16.03;10.57;;;;;;;;;;5010494;28;20425;-70
2023/12/03 07:19:09;;;;;;;15.80;11.67;;;;;;;;;;5011696;28;20437;-69
2023/12/03 07:21:35;;;;;;;19.10;12.83;;;-7.00;48.30;;;;;;5011824;28;20409;-69
2023/12/03 07:24:00;;;;;;;17.70;10.87;;;-7.00;48.50;;;;;;5012082;28;20425;-69
2023/12/03 07:26:26;;;;;;;13.07;9.40;;;-6.90;48.30;;;;;;5011373;28;20181;-74
2023/12/03 07:28:51;;;;;;;14.77;10.40;;;;;;;;;;5011493;28;20206;-73
2023/12/03 07:31:18;;;;;;;16.33;9.47;;;;;;;;;;5010244;28;20226;-71
2023/12/03 07:33:44;;;;;;;12.68;9.80;;;;;;;;;;5015221;28;20516;-71
2023/12/03 07:36:10;;;;;;;12.98;9.05;;;-6.80;47.60;;;;;;5015129;28;20262;-71
2023/12/03 07:38:35;;;;;;;17.17;11.27;;;-6.70;48.00;;;;;;5015142;28;20231;-71
2023/12/03 07:41:01;;;;;;;16.07;10.97;;;-6.70;47.40;;;;;;5015544;28;20643;-72
2023/12/03 07:43:27;;;;;;;17.20;11.03;;;-6.60;47.10;;;;;;5015458;28;20182;-72
2023/12/03 07:45:52;;;;;;;19.40;10.20;;;-6.60;46.80;;;;;;5016037;28;20172;-72
2023/12/03 07:48:18;;;;;;;14.63;9.03;;;-6.50;47.80;;;;;;5015914;28;20411;-72
2023/12/03 07:50:45;;;;;;;15.32;10.20;;;-6.50;46.60;;;;;;5015321;28;20338;-71
2023/12/03 07:53:11;;;;;;;16.10;10.13;;;-6.40;46.60;;;;;;5015803;28;20211;-71
2023/12/03 07:55:36;;;;;;;13.97;8.93;;;-6.20;46.10;;;;;;5015198;28;20183;-71
2023/12/03 07:58:02;;;;;;;13.87;10.47;;;;;;;;;;5015315;28;20485;-71
2023/12/03 08:00:28;;;;;;;15.70;10.38;;;;;;;;;;5013964;28;20248;-70
2023/12/03 08:02:54;;;;;;;14.10;10.10;;;-6.30;42.80;;;;;;5015729;28;20164;-71
2023/12/03 08:05:20;;;;;;;14.32;10.65;;;;;;;;;;5015060;28;20501;-71
2023/12/03 08:07:46;;;;;;;16.27;10.77;;;;;;;;;;5015166;28;20283;-71
2023/12/03 08:10:12;;;;;;;19.20;11.87;;;;;;;;;;5013728;28;20282;-71
2023/12/03 08:12:38;;;;;;;17.10;10.20;;;-6.10;41.80;;;;;;5015036;28;21103;-72
2023/12/03 08:15:04;;;;;;;17.67;10.80;;;-6.00;41.80;;;;;;5014854;28;20513;-71
2023/12/03 08:17:29;;;;;;;13.15;10.35;;;-6.00;40.60;;;;;;5012815;28;20688;-73
2023/12/03 08:19:55;;;;;;;16.40;9.93;;;-5.90;40.70;;;;;;5013644;28;20279;-70
2023/12/03 08:22:20;;;;;;;14.07;10.70;;;-5.90;40.60;;;;;;5010156;28;20187;-72
2023/12/03 08:24:52;;;;;;;14.63;10.10;;;-5.80;40.40;;;;;;5010957;28;20184;-72
2023/12/03 08:27:18;;;;;;;14.80;9.85;;;-5.80;39.00;;;;;;4996455;28;20526;-72
2023/12/03 08:29:43;;;;;;;13.57;9.83;;;-5.80;37.50;;;;;;5012050;28;20212;-72
2023/12/03 08:32:09;;;;;;;16.73;10.20;;;-5.70;36.80;;;;;;5013157;28;20184;-71
2023/12/03 08:34:34;;;;;;;15.60;10.77;;;-5.70;36.10;;;;;;4996309;28;20366;-72
2023/12/03 08:37:00;;;;;;;18.30;11.67;;;-5.70;34.90;;;;;;4990886;28;20279;-72
2023/12/03 08:39:25;;;;;;;18.37;11.73;;;-5.60;34.90;;;;;;5001847;28;20212;-72
2023/12/03 08:41:51;;;;;;;14.53;11.43;;;-5.50;36.80;;;;;;5010252;28;20211;-72
2023/12/03 08:44:16;;;;;;;18.33;11.77;;;-5.40;35.50;;;;;;5011834;28;20678;-72
2023/12/03 08:46:42;;;;;;;13.97;10.10;;;-5.50;33.50;;;;;;5010695;28;20188;-72
2023/12/03 08:49:11;;;;;;;13.17;9.47;;;-5.30;33.20;;;;;;5011388;28;20556;-72
2023/12/03 08:51:38;;;;;;;18.95;11.90;;;-5.30;32.70;;;;;;5014873;28;20275;-72
2023/12/03 08:54:04;;;;;;;17.23;12.02;;;-5.20;31.80;;;;;;5011620;28;20188;-71
2023/12/03 08:56:29;;;;;;;13.87;10.53;;;-5.20;31.60;;;;;;5011236;28;20183;-71
2023/12/03 08:58:55;;;;;;;18.13;10.97;;;-5.10;29.90;;;;;;5013826;28;20208;-71
2023/12/03 09:01:20;;;;;;;17.60;12.87;;;-5.00;29.80;;;;;;5012837;28;20183;-71
2023/12/03 09:03:46;;;;;;;18.03;11.10;;;-5.00;29.90;;;;;;5014009;28;20226;-71
2023/12/03 09:06:12;;;;;;;17.23;10.53;;;-5.00;29.90;;;;;;5013932;28;20168;-71
2023/12/03 09:08:38;;;;;;;18.70;9.90;;;-4.90;29.30;;;;;;5013950;28;20191;-72
2023/12/03 09:11:07;;;;;;;13.30;9.10;;;-4.90;29.20;;;;;;4998048;28;20579;-71
2023/12/03 09:13:32;;;;;;;11.10;9.18;;;-4.90;28.60;;;;;;5004374;28;20189;-70
2023/12/03 09:15:58;;;;;;;15.20;9.13;;;-4.90;29.60;;;;;;5013521;28;20183;-72
2023/12/03 09:18:27;;;;;;;19.10;11.03;;;-4.80;30.20;;;;;;5009030;28;20294;-71
2023/12/03 09:20:52;;;;;;;15.05;10.18;;;-4.70;29.40;;;;;;5009939;28;20703;-71
2023/12/03 09:23:18;;;;;;;16.53;9.80;;;-4.60;28.90;;;;;;5009725;28;20184;-72
2023/12/03 09:25:44;;;;;;;16.43;10.83;;;;;;;;;;5007768;28;20199;-72
2023/12/03 09:28:11;;;;;;;13.25;10.50;;;;;;;;;;5008229;28;20225;-71
2023/12/03 09:30:37;;;;;;;16.33;10.35;;;-4.40;31.20;;;;;;5008168;28;20283;-71
2023/12/03 09:33:04;;;;;;;16.37;11.03;;;-4.30;30.40;;;;;;5007958;28;20306;-71
2023/12/03 09:35:30;;;;;;;14.68;9.82;;;-4.30;29.50;;;;;;5008418;28;20426;-71
2023/12/03 09:37:56;;;;;;;18.02;11.05;;;-4.20;28.90;;;;;;5008131;28;20400;-71
2023/12/03 09:40:23;;;;;;;15.77;10.77;;;-4.10;26.50;;;;;;5009290;28;20679;-73
2023/12/03 09:42:50;;;;;;;15.38;10.07;;;-4.00;26.10;;;;;;5009731;28;20180;-71
2023/12/03 09:45:19;;;;;;;13.52;7.30;;;-4.00;25.20;;;;;;5009821;28;20229;-71
2023/12/03 09:47:53;;;;;;;11.73;8.50;;;-3.70;26.10;;;;;;5009274;28;20181;-71
2023/12/03 09:50:20;;;;;;;13.60;8.77;;;-3.60;25.00;;;;;;5022906;23;20232;-71
2023/12/03 09:52:50;;;;;;;13.82;8.13;;;-3.50;25.20;;;;;;5008811;28;20556;-70
2023/12/03 09:55:17;;;;;;;15.18;10.30;;;-3.40;24.00;;;;;;5013618;28;20189;-70
2023/12/03 09:57:44;;;;;;;15.68;9.88;;;-3.30;24.40;;;;;;5023493;28;20212;-70
2023/12/03 10:00:10;;;;;;;16.27;9.82;;;-3.20;24.60;;;;;;5019076;28;20204;-69
2023/12/03 10:02:36;;;;;;;12.70;8.40;;;-3.00;24.00;;;;;;5014471;28;20187;-71
2023/12/03 10:05:03;;;;;;;14.68;10.70;;;-3.00;23.50;;;;;;5014588;28;20243;-69
2023/12/03 10:07:29;;;;;;;17.88;11.40;;;-2.90;23.40;;;;;;5012703;28;20191;-69
2023/12/03 10:10:01;;;;;;;13.00;9.05;;;-2.80;22.60;;;;;;5013623;28;20203;-69
2023/12/03 10:12:37;;;;;;;12.00;10.20;;;-2.60;23.50;;;;;;5007372;28;20178;-68
2023/12/03 10:15:02;;;;;;;16.80;10.40;;;-2.40;20.60;;;;;;4993958;28;20175;-70
2023/12/03 10:17:28;;;;;;;14.13;9.63;;;-2.50;18.30;;;;;;4993776;28;20217;-70
2023/12/03 10:19:54;;;;;;;13.20;8.57;;;-2.40;19.40;;;;;;4991821;28;20441;-70
2023/12/03 10:22:31;;;;;;;12.90;9.70;;;-2.30;17.90;;;;;;4996172;28;20627;-71
2023/12/03 10:24:59;;;;;;;12.75;9.75;;;-2.20;18.60;;;;;;4991860;28;20205;-70
2023/12/03 10:27:29;;;;;;;14.57;8.65;;;-1.90;17.20;;;;;;4986228;28;20215;-72
2023/12/03 10:29:55;;;;;;;12.32;8.85;;;-1.80;17.70;;;;;;4976628;28;20519;-70
2023/12/03 10:32:22;;;;;;;9.13;7.20;;;-1.60;17.50;;;;;;4976507;28;20186;-70
2023/12/03 10:34:49;;;;;;;12.07;9.70;;;-1.50;16.00;;;;;;4992745;28;20415;-71
2023/12/03 10:37:15;;;;;;;11.27;8.90;;;-1.40;16.10;;;;;;4992682;28;20201;-70
2023/12/03 10:39:41;;;;;;;13.35;9.35;;;-1.20;16.20;;;;;;4992701;28;20195;-70
2023/12/03 10:42:08;;;;;;;12.00;7.67;;;-1.00;16.20;;;;;;4992829;28;20184;-70
2023/12/03 10:44:37;;;;;;;14.27;9.57;;;-0.90;16.90;;;;;;4992597;28;20184;-70
2023/12/03 10:47:03;;;;;;;15.38;10.40;;;-0.80;16.20;;;;;;4992902;28;20186;-70
2023/12/03 10:49:31;;;;;;;22.50;16.20;;;-0.70;13.80;;;;;;4991449;28;20586;-70
2023/12/03 10:51:58;;;;;;;18.58;11.27;;;-0.60;13.50;;;;;;4996848;28;20414;-70
2023/12/03 10:54:25;;;;;;;13.40;10.00;;;-0.40;12.50;;;;;;5012134;28;20210;-71
2023/12/03 10:56:54;;;;;;;11.75;8.52;;;-0.50;11.60;;;;;;5005542;28;20235;-71
2023/12/03 10:59:23;;;;;;;13.40;9.70;;;-0.40;13.40;;;;;;4991663;28;20264;-72
2023/12/03 11:01:54;;;;;;;14.85;9.00;;;-0.20;12.60;;;;;;4987262;28;20196;-70
2023/12/03 11:04:38;;;;;;;13.05;8.85;;;0.00;12.90;;;;;;4992926;28;20231;-70
2023/12/03 11:07:07;;;;;;;73.20;49.65;;;0.10;8.90;;;;;;4995005;28;20331;-70
2023/12/03 11:09:36;;;;;;;15.82;10.35;;;0.00;9.40;;;;;;4996569;28;20196;-74
2023/12/03 11:12:03;;;;;;;13.70;8.90;;;0.10;10.20;;;;;;4996472;28;20296;-73
2023/12/03 11:14:29;;;;;;;15.52;9.13;;;0.20;9.90;;;;;;4996600;28;20614;-73
2023/12/03 11:17:14;;;;;;;13.18;8.70;;;0.40;8.60;;;;;;5008765;28;20247;-71
2023/12/03 11:19:44;;;;;;;11.70;8.27;;;0.40;8.60;;;;;;4999840;28;20207;-69
2023/12/03 11:22:38;;;;;;;13.00;8.23;;;0.70;9.40;;;;;;4993877;28;20549;-70
2023/12/03 11:25:11;;;;;;;7.65;6.63;;;0.90;9.00;;;;;;4990474;28;20731;-69
2023/12/03 11:27:40;;;;;;;14.85;9.43;;;1.00;8.40;;;;;;4980658;28;20174;-68
2023/12/03 11:30:06;;;;;;;13.00;8.95;;;1.00;8.40;;;;;;5015188;28;20425;-70
2023/12/03 11:32:32;;;;;;;14.65;9.82;;;1.10;9.10;;;;;;5015451;28;20267;-69
2023/12/03 11:35:07;;;;;;;14.70;10.97;;;1.00;9.30;;;;;;5015539;28;20405;-71
2023/12/03 11:37:33;;;;;;;14.55;10.77;;;0.90;9.60;;;;;;4993084;28;20208;-69
2023/12/03 11:40:20;;;;;;;13.43;10.60;;;0.80;9.40;;;;;;4993389;28;20295;-69
2023/12/03 11:42:47;;;;;;;17.45;12.43;;;0.80;10.10;;;;;;5003354;28;20215;-68
2023/12/03 11:45:22;;;;;;;18.70;13.48;;;0.60;10.90;;;;;;4976308;28;20606;-68
2023/12/03 11:48:05;;;;;;;21.15;13.50;;;0.20;11.30;;;;;;4976449;28;20168;-69
2023/12/03 11:50:33;;;;;;;14.75;11.05;;;0.30;12.80;;;;;;4974753;28;20216;-68
2023/12/03 11:52:59;;;;;;;17.92;11.52;;;0.40;12.90;;;;;;5001852;28;20195;-70
2023/12/03 11:55:26;;;;;;;17.92;12.50;;;0.40;12.20;;;;;;4998258;28;20185;-68
2023/12/03 11:57:52;;;;;;;17.95;13.35;;;0.40;13.90;;;;;;4985498;28;20297;-68
2023/12/03 12:00:19;;;;;;;18.80;13.80;;;0.50;13.70;;;;;;4995471;28;20196;-71
2023/12/03 12:02:44;;;;;;;17.05;11.70;;;0.60;13.50;;;;;;4995338;28;20873;-69
2023/12/03 12:05:10;;;;;;;15.50;11.60;;;0.70;13.60;;;;;;5006800;28;20191;-69
2023/12/03 12:07:36;;;;;;;19.50;12.50;;;0.70;14.10;;;;;;5016834;28;20187;-68
2023/12/03 12:10:02;;;;;;;20.70;12.30;;;0.70;12.80;;;;;;5019518;28;20231;-69
2023/12/03 12:12:27;;;;;;;16.48;13.00;;;0.80;13.00;;;;;;5017675;28;20191;-69
2023/12/03 12:14:53;;;;;;;19.37;13.37;;;0.80;12.30;;;;;;5016820;28;20550;-71
2023/12/03 12:17:20;;;;;;;16.97;12.90;;;0.90;12.60;;;;;;5014335;28;20294;-69
2023/12/03 12:19:49;;;;;;;16.60;12.02;;;1.00;11.10;;;;;;4999685;28;20199;-69
2023/12/03 12:22:16;;;;;;;21.40;13.82;;;1.10;10.40;;;;;;4995741;28;20173;-68
2023/12/03 12:24:42;;;;;;;16.42;12.88;;;1.10;11.40;;;;;;4995722;28;20312;-69
2023/12/03 12:27:08;;;;;;;21.15;14.65;;;1.00;11.80;;;;;;4994190;28;20187;-69
2023/12/03 12:29:34;;;;;;;18.43;12.63;;;0.90;11.70;;;;;;4995409;28;20614;-70
2023/12/03 12:32:00;;;;;;;17.40;12.93;;;0.90;13.10;;;;;;4986403;28;20328;-69
2023/12/03 12:34:27;;;;;;;24.37;13.80;;;1.10;12.50;;;;;;4974503;28;20225;-70
2023/12/03 12:37:03;;;;;;;16.58;13.90;;;1.00;12.10;;;;;;4975342;28;20507;-69
2023/12/03 12:39:29;;;;;;;23.25;12.98;;;1.00;12.70;;;;;;4975756;28;20194;-68